sensor_id;sensor_type;location;lat;lon;timestamp;temperature;humidity
19385;DHT22;9828;54.122;17.974;2023-06-14T00:04:34;15.70;1.00
19385;DHT22;9828;54.122;17.974;2023-06-14T00:09:56;15.70;1.00
19385;DHT22;9828;54.122;17.974;2023-06-14T00:15:17;15.60;1.00
19385;DHT22;9828;54.122;17.974;2023-06-14T00:20:38;15.50;1.00
19385;DHT22;9828;54.122;17.974;2023-06-14T00:26:00;15.50;1.00
19385;DHT22;9828;54.122;17.974;2023-06-14T00:31:21;15.50;3.10
19385;DHT22;9828;54.122;17.974;2023-06-14T00:36:42;15.50;10.50
19385;DHT22;9828;54.122;17.974;2023-06-14T00:42:03;15.40;26.40
19385;DHT22;9828;54.122;17.974;2023-06-14T00:47:26;15.30;63.00
19385;DHT22;9828;54.122;17.974;2023-06-14T00:52:47;15.30;99.90
19385;DHT22;9828;54.122;17.974;2023-06-14T00:58:10;15.20;99.90
19385;DHT22;9828;54.122;17.974;2023-06-14T01:03:31;15.20;99.90
19385;DHT22;9828;54.122;17.974;2023-06-14T01:14:34;15.40;73.50
19385;DHT22;9828;54.122;17.974;2023-06-14T01:20:01;15.40;33.60
19385;DHT22;9828;54.122;17.974;2023-06-14T01:25:24;15.40;72.10
19385;DHT22;9828;54.122;17.974;2023-06-14T01:30:53;15.40;75.10
19385;DHT22;9828;54.122;17.974;2023-06-14T01:36:15;15.30;85.50
19385;DHT22;9828;54.122;17.974;2023-06-14T01:41:38;15.40;99.90
19385;DHT22;9828;54.122;17.974;2023-06-14T01:46:59;15.40;92.40
19385;DHT22;9828;54.122;17.974;2023-06-14T01:52:20;15.50;95.20
19385;DHT22;9828;54.122;17.974;2023-06-14T01:57:43;15.50;53.90
19385;DHT22;9828;54.122;17.974;2023-06-14T02:03:04;15.50;98.80
19385;DHT22;9828;54.122;17.974;2023-06-14T02:13:47;15.40;99.90
19385;DHT22;9828;54.122;17.974;2023-06-14T02:19:08;15.40;99.90
19385;DHT22;9828;54.122;17.974;2023-06-14T02:24:29;15.30;99.90
19385;DHT22;9828;54.122;17.974;2023-06-14T02:29:52;15.30;99.90
19385;DHT22;9828;54.122;17.974;2023-06-14T02:35:14;15.30;99.90
19385;DHT22;9828;54.122;17.974;2023-06-14T02:40:35;15.30;1.00
19385;DHT22;9828;54.122;17.974;2023-06-14T02:45:56;15.30;1.00
19385;DHT22;9828;54.122;17.974;2023-06-14T02:51:18;15.20;1.00
19385;DHT22;9828;54.122;17.974;2023-06-14T02:56:39;15.20;1.00
19385;DHT22;9828;54.122;17.974;2023-06-14T03:02:02;15.20;1.00
19385;DHT22;9828;54.122;17.974;2023-06-14T03:07:25;15.30;1.00
19385;DHT22;9828;54.122;17.974;2023-06-14T03:12:49;15.20;1.00
19385;DHT22;9828;54.122;17.974;2023-06-14T03:18:14;15.20;1.00
19385;DHT22;9828;54.122;17.974;2023-06-14T03:23:37;15.20;1.00
19385;DHT22;9828;54.122;17.974;2023-06-14T03:28:58;15.10;70.80
19385;DHT22;9828;54.122;17.974;2023-06-14T03:34:19;15.10;99.90
19385;DHT22;9828;54.122;17.974;2023-06-14T03:39:41;15.10;99.90
19385;DHT22;9828;54.122;17.974;2023-06-14T03:45:12;15.30;99.90
19385;DHT22;9828;54.122;17.974;2023-06-14T03:50:33;15.40;99.90
19385;DHT22;9828;54.122;17.974;2023-06-14T03:55:55;15.50;96.40
19385;DHT22;9828;54.122;17.974;2023-06-14T04:01:25;15.60;39.70
19385;DHT22;9828;54.122;17.974;2023-06-14T04:06:53;15.60;99.90
19385;DHT22;9828;54.122;17.974;2023-06-14T04:12:14;15.70;99.90
19385;DHT22;9828;54.122;17.974;2023-06-14T04:17:36;15.60;99.90
19385;DHT22;9828;54.122;17.974;2023-06-14T04:23:11;15.80;99.90
19385;DHT22;9828;54.122;17.974;2023-06-14T04:28:34;15.90;99.90
19385;DHT22;9828;54.122;17.974;2023-06-14T04:34:02;16.00;99.90
19385;DHT22;9828;54.122;17.974;2023-06-14T04:39:28;16.20;99.90
19385;DHT22;9828;54.122;17.974;2023-06-14T04:44:52;16.30;29.30
19385;DHT22;9828;54.122;17.974;2023-06-14T04:50:17;16.40;23.70
19385;DHT22;9828;54.122;17.974;2023-06-14T04:55:39;16.60;2.80
19385;DHT22;9828;54.122;17.974;2023-06-14T05:01:03;16.80;1.00
19385;DHT22;9828;54.122;17.974;2023-06-14T05:06:25;17.20;1.00
19385;DHT22;9828;54.122;17.974;2023-06-14T05:11:50;17.50;1.00
19385;DHT22;9828;54.122;17.974;2023-06-14T05:17:11;17.70;99.90
19385;DHT22;9828;54.122;17.974;2023-06-14T05:22:32;18.00;99.90
19385;DHT22;9828;54.122;17.974;2023-06-14T05:27:54;18.20;99.90
19385;DHT22;9828;54.122;17.974;2023-06-14T05:33:16;18.40;45.00
19385;DHT22;9828;54.122;17.974;2023-06-14T05:38:38;18.60;19.90
19385;DHT22;9828;54.122;17.974;2023-06-14T05:43:59;18.80;1.00
19385;DHT22;9828;54.122;17.974;2023-06-14T05:49:21;19.00;1.00
19385;DHT22;9828;54.122;17.974;2023-06-14T05:54:42;19.20;1.00
19385;DHT22;9828;54.122;17.974;2023-06-14T06:00:04;19.50;1.00
19385;DHT22;9828;54.122;17.974;2023-06-14T06:05:32;19.70;1.00
19385;DHT22;9828;54.122;17.974;2023-06-14T06:10:53;20.00;1.00
19385;DHT22;9828;54.122;17.974;2023-06-14T06:16:15;20.00;1.00
19385;DHT22;9828;54.122;17.974;2023-06-14T06:21:36;20.30;1.00
19385;DHT22;9828;54.122;17.974;2023-06-14T06:26:57;20.40;1.00
19385;DHT22;9828;54.122;17.974;2023-06-14T06:32:19;20.70;1.00
19385;DHT22;9828;54.122;17.974;2023-06-14T06:37:43;21.00;99.90
19385;DHT22;9828;54.122;17.974;2023-06-14T06:43:05;21.20;99.90
19385;DHT22;9828;54.122;17.974;2023-06-14T06:48:34;21.70;99.90
19385;DHT22;9828;54.122;17.974;2023-06-14T06:53:56;22.40;99.90
19385;DHT22;9828;54.122;17.974;2023-06-14T06:59:17;23.10;99.90
19385;DHT22;9828;54.122;17.974;2023-06-14T07:04:38;23.40;99.90
19385;DHT22;9828;54.122;17.974;2023-06-14T07:10:00;23.70;99.90
19385;DHT22;9828;54.122;17.974;2023-06-14T07:15:21;24.20;99.90
19385;DHT22;9828;54.122;17.974;2023-06-14T07:20:42;24.70;99.90
19385;DHT22;9828;54.122;17.974;2023-06-14T07:26:04;25.20;99.90
19385;DHT22;9828;54.122;17.974;2023-06-14T07:31:25;25.10;99.90
19385;DHT22;9828;54.122;17.974;2023-06-14T07:36:47;24.90;99.90
19385;DHT22;9828;54.122;17.974;2023-06-14T07:42:08;24.60;99.90
19385;DHT22;9828;54.122;17.974;2023-06-14T07:47:30;24.30;99.90
19385;DHT22;9828;54.122;17.974;2023-06-14T07:52:51;24.20;99.90
19385;DHT22;9828;54.122;17.974;2023-06-14T07:58:14;24.50;99.90
19385;DHT22;9828;54.122;17.974;2023-06-14T08:03:36;25.00;99.90
19385;DHT22;9828;54.122;17.974;2023-06-14T08:08:57;25.40;99.90
19385;DHT22;9828;54.122;17.974;2023-06-14T08:14:18;25.60;99.90
19385;DHT22;9828;54.122;17.974;2023-06-14T08:19:39;25.80;99.90
19385;DHT22;9828;54.122;17.974;2023-06-14T08:25:00;25.70;99.90
19385;DHT22;9828;54.122;17.974;2023-06-14T08:30:22;25.50;99.90
19385;DHT22;9828;54.122;17.974;2023-06-14T08:35:44;25.60;99.90
19385;DHT22;9828;54.122;17.974;2023-06-14T08:41:06;25.70;99.90
19385;DHT22;9828;54.122;17.974;2023-06-14T08:46:27;26.80;99.90
19385;DHT22;9828;54.122;17.974;2023-06-14T08:51:53;27.10;99.90
19385;DHT22;9828;54.122;17.974;2023-06-14T08:57:18;27.30;99.90
19385;DHT22;9828;54.122;17.974;2023-06-14T09:02:41;27.20;99.90
19385;DHT22;9828;54.122;17.974;2023-06-14T09:08:04;27.20;99.90
19385;DHT22;9828;54.122;17.974;2023-06-14T09:13:27;27.20;99.90
19385;DHT22;9828;54.122;17.974;2023-06-14T09:18:50;27.10;99.90
19385;DHT22;9828;54.122;17.974;2023-06-14T09:24:14;27.50;99.90
19385;DHT22;9828;54.122;17.974;2023-06-14T09:29:35;28.10;99.90
19385;DHT22;9828;54.122;17.974;2023-06-14T09:34:57;28.30;99.90
19385;DHT22;9828;54.122;17.974;2023-06-14T09:40:23;28.00;99.90
19385;DHT22;9828;54.122;17.974;2023-06-14T09:45:44;28.40;99.90
19385;DHT22;9828;54.122;17.974;2023-06-14T09:51:07;29.10;99.90
19385;DHT22;9828;54.122;17.974;2023-06-14T09:56:44;29.10;99.90
19385;DHT22;9828;54.122;17.974;2023-06-14T10:02:09;28.80;99.90
19385;DHT22;9828;54.122;17.974;2023-06-14T10:07:54;29.10;99.90
19385;DHT22;9828;54.122;17.974;2023-06-14T10:13:17;29.00;99.90
19385;DHT22;9828;54.122;17.974;2023-06-14T10:18:51;28.40;99.90
19385;DHT22;9828;54.122;17.974;2023-06-14T10:24:16;27.80;99.90
19385;DHT22;9828;54.122;17.974;2023-06-14T10:35:16;26.70;99.90
19385;DHT22;9828;54.122;17.974;2023-06-14T10:40:39;26.10;99.90
19385;DHT22;9828;54.122;17.974;2023-06-14T10:46:19;26.20;99.90
19385;DHT22;9828;54.122;17.974;2023-06-14T10:51:49;26.10;99.90
19385;DHT22;9828;54.122;17.974;2023-06-14T10:57:11;25.90;99.90
19385;DHT22;9828;54.122;17.974;2023-06-14T11:03:08;25.70;99.90
19385;DHT22;9828;54.122;17.974;2023-06-14T11:14:14;25.50;99.90
19385;DHT22;9828;54.122;17.974;2023-06-14T11:19:35;25.40;99.90
19385;DHT22;9828;54.122;17.974;2023-06-14T11:24:57;26.10;99.90
19385;DHT22;9828;54.122;17.974;2023-06-14T11:30:22;26.30;99.90
19385;DHT22;9828;54.122;17.974;2023-06-14T11:35:44;26.40;99.90
19385;DHT22;9828;54.122;17.974;2023-06-14T11:41:06;26.40;99.90
19385;DHT22;9828;54.122;17.974;2023-06-14T11:46:27;26.50;99.90
19385;DHT22;9828;54.122;17.974;2023-06-14T11:51:48;26.80;99.90
19385;DHT22;9828;54.122;17.974;2023-06-14T11:57:10;27.40;99.90
19385;DHT22;9828;54.122;17.974;2023-06-14T12:02:31;27.90;99.90
19385;DHT22;9828;54.122;17.974;2023-06-14T12:08:00;27.80;99.90
19385;DHT22;9828;54.122;17.974;2023-06-14T12:13:22;27.90;99.90
19385;DHT22;9828;54.122;17.974;2023-06-14T12:18:43;28.10;99.90
19385;DHT22;9828;54.122;17.974;2023-06-14T12:24:04;27.90;99.90
19385;DHT22;9828;54.122;17.974;2023-06-14T12:29:28;28.00;99.90
19385;DHT22;9828;54.122;17.974;2023-06-14T12:34:49;28.10;99.90
19385;DHT22;9828;54.122;17.974;2023-06-14T12:40:11;28.00;99.90
19385;DHT22;9828;54.122;17.974;2023-06-14T12:45:32;27.30;99.90
19385;DHT22;9828;54.122;17.974;2023-06-14T12:50:54;27.10;99.90
19385;DHT22;9828;54.122;17.974;2023-06-14T12:56:15;26.70;99.90
19385;DHT22;9828;54.122;17.974;2023-06-14T13:01:38;26.80;99.90
19385;DHT22;9828;54.122;17.974;2023-06-14T13:07:00;26.90;99.90
19385;DHT22;9828;54.122;17.974;2023-06-14T13:12:21;26.70;99.90
19385;DHT22;9828;54.122;17.974;2023-06-14T13:17:42;26.40;99.90
19385;DHT22;9828;54.122;17.974;2023-06-14T13:23:04;26.40;99.90
19385;DHT22;9828;54.122;17.974;2023-06-14T13:28:28;26.30;99.90
19385;DHT22;9828;54.122;17.974;2023-06-14T13:33:49;26.40;99.90
19385;DHT22;9828;54.122;17.974;2023-06-14T13:39:10;26.20;99.90
19385;DHT22;9828;54.122;17.974;2023-06-14T13:44:31;26.10;99.90
19385;DHT22;9828;54.122;17.974;2023-06-14T13:49:53;25.80;99.90
19385;DHT22;9828;54.122;17.974;2023-06-14T13:55:14;25.80;99.90
19385;DHT22;9828;54.122;17.974;2023-06-14T14:00:36;26.10;99.90
19385;DHT22;9828;54.122;17.974;2023-06-14T14:06:02;26.20;99.90
19385;DHT22;9828;54.122;17.974;2023-06-14T14:11:24;26.40;99.90
19385;DHT22;9828;54.122;17.974;2023-06-14T14:16:45;26.10;99.90
19385;DHT22;9828;54.122;17.974;2023-06-14T14:22:07;25.70;99.90
19385;DHT22;9828;54.122;17.974;2023-06-14T14:27:28;25.40;99.90
19385;DHT22;9828;54.122;17.974;2023-06-14T14:32:50;25.10;99.90
19385;DHT22;9828;54.122;17.974;2023-06-14T14:38:15;24.80;99.90
19385;DHT22;9828;54.122;17.974;2023-06-14T14:43:37;24.80;99.90
19385;DHT22;9828;54.122;17.974;2023-06-14T14:49:01;24.70;99.90
19385;DHT22;9828;54.122;17.974;2023-06-14T14:54:22;24.80;99.90
19385;DHT22;9828;54.122;17.974;2023-06-14T14:59:44;24.80;99.90
19385;DHT22;9828;54.122;17.974;2023-06-14T15:05:06;25.00;99.90
19385;DHT22;9828;54.122;17.974;2023-06-14T15:10:27;24.80;99.90
19385;DHT22;9828;54.122;17.974;2023-06-14T15:15:49;24.70;99.90
19385;DHT22;9828;54.122;17.974;2023-06-14T15:21:10;24.70;99.90
19385;DHT22;9828;54.122;17.974;2023-06-14T15:26:31;24.70;99.90
19385;DHT22;9828;54.122;17.974;2023-06-14T15:31:53;24.70;99.90
19385;DHT22;9828;54.122;17.974;2023-06-14T15:37:15;24.70;99.90
19385;DHT22;9828;54.122;17.974;2023-06-14T15:42:36;24.80;99.90
19385;DHT22;9828;54.122;17.974;2023-06-14T15:47:58;24.70;99.90
19385;DHT22;9828;54.122;17.974;2023-06-14T15:53:21;24.60;99.90
19385;DHT22;9828;54.122;17.974;2023-06-14T15:58:42;24.50;99.90
19385;DHT22;9828;54.122;17.974;2023-06-14T16:04:03;24.40;99.90
19385;DHT22;9828;54.122;17.974;2023-06-14T16:09:25;24.20;99.90
19385;DHT22;9828;54.122;17.974;2023-06-14T16:14:47;23.80;99.90
19385;DHT22;9828;54.122;17.974;2023-06-14T16:20:08;23.60;99.90
19385;DHT22;9828;54.122;17.974;2023-06-14T16:25:30;23.40;99.90
19385;DHT22;9828;54.122;17.974;2023-06-14T16:30:51;23.30;99.90
19385;DHT22;9828;54.122;17.974;2023-06-14T16:36:13;23.40;99.90
19385;DHT22;9828;54.122;17.974;2023-06-14T16:41:35;23.30;99.90
19385;DHT22;9828;54.122;17.974;2023-06-14T16:46:56;23.20;99.90
19385;DHT22;9828;54.122;17.974;2023-06-14T16:52:21;22.90;99.90
19385;DHT22;9828;54.122;17.974;2023-06-14T16:57:42;22.70;99.90
19385;DHT22;9828;54.122;17.974;2023-06-14T17:03:03;22.50;99.90
19385;DHT22;9828;54.122;17.974;2023-06-14T17:08:25;22.30;99.90
19385;DHT22;9828;54.122;17.974;2023-06-14T17:13:47;22.10;99.90
19385;DHT22;9828;54.122;17.974;2023-06-14T17:19:08;21.70;99.90
19385;DHT22;9828;54.122;17.974;2023-06-14T17:24:29;21.40;99.90
19385;DHT22;9828;54.122;17.974;2023-06-14T17:29:50;21.20;99.90
19385;DHT22;9828;54.122;17.974;2023-06-14T17:35:12;20.90;99.90
19385;DHT22;9828;54.122;17.974;2023-06-14T17:40:35;20.90;99.90
19385;DHT22;9828;54.122;17.974;2023-06-14T17:46:05;20.80;99.90
19385;DHT22;9828;54.122;17.974;2023-06-14T17:51:27;20.60;99.90
19385;DHT22;9828;54.122;17.974;2023-06-14T17:56:48;20.10;99.90
19385;DHT22;9828;54.122;17.974;2023-06-14T18:02:10;19.80;99.90
19385;DHT22;9828;54.122;17.974;2023-06-14T18:07:31;19.70;99.90
19385;DHT22;9828;54.122;17.974;2023-06-14T18:12:53;19.70;99.90
19385;DHT22;9828;54.122;17.974;2023-06-14T18:18:14;19.70;99.90
19385;DHT22;9828;54.122;17.974;2023-06-14T18:23:35;19.40;1.00
19385;DHT22;9828;54.122;17.974;2023-06-14T18:28:57;19.40;99.90
19385;DHT22;9828;54.122;17.974;2023-06-14T18:34:19;19.50;99.90
19385;DHT22;9828;54.122;17.974;2023-06-14T18:39:42;19.30;99.90
19385;DHT22;9828;54.122;17.974;2023-06-14T18:45:03;19.20;99.90
19385;DHT22;9828;54.122;17.974;2023-06-14T18:50:25;19.20;99.90
19385;DHT22;9828;54.122;17.974;2023-06-14T18:55:47;19.10;1.00
19385;DHT22;9828;54.122;17.974;2023-06-14T19:01:08;19.00;1.00
19385;DHT22;9828;54.122;17.974;2023-06-14T19:06:30;19.10;1.00
19385;DHT22;9828;54.122;17.974;2023-06-14T19:11:52;19.10;1.00
19385;DHT22;9828;54.122;17.974;2023-06-14T19:17:13;18.90;1.00
19385;DHT22;9828;54.122;17.974;2023-06-14T19:22:36;18.80;99.90
19385;DHT22;9828;54.122;17.974;2023-06-14T19:27:58;18.60;1.00
19385;DHT22;9828;54.122;17.974;2023-06-14T19:33:20;18.60;99.90
19385;DHT22;9828;54.122;17.974;2023-06-14T19:38:41;18.70;48.90
19385;DHT22;9828;54.122;17.974;2023-06-14T19:44:02;18.50;99.90
19385;DHT22;9828;54.122;17.974;2023-06-14T19:49:24;18.50;1.00
19385;DHT22;9828;54.122;17.974;2023-06-14T19:54:45;18.60;99.90
19385;DHT22;9828;54.122;17.974;2023-06-14T20:00:07;18.60;1.00
19385;DHT22;9828;54.122;17.974;2023-06-14T20:05:29;18.50;1.00
19385;DHT22;9828;54.122;17.974;2023-06-14T20:10:51;18.40;1.00
19385;DHT22;9828;54.122;17.974;2023-06-14T20:16:13;18.50;1.00
19385;DHT22;9828;54.122;17.974;2023-06-14T20:21:34;18.40;1.00
19385;DHT22;9828;54.122;17.974;2023-06-14T20:26:56;18.50;1.00
19385;DHT22;9828;54.122;17.974;2023-06-14T20:32:17;18.50;1.00
19385;DHT22;9828;54.122;17.974;2023-06-14T20:37:38;18.40;1.00
19385;DHT22;9828;54.122;17.974;2023-06-14T20:42:59;18.40;1.00
19385;DHT22;9828;54.122;17.974;2023-06-14T20:48:25;18.20;99.90
19385;DHT22;9828;54.122;17.974;2023-06-14T20:53:46;18.20;99.90
19385;DHT22;9828;54.122;17.974;2023-06-14T20:59:07;18.20;1.00
19385;DHT22;9828;54.122;17.974;2023-06-14T21:04:28;18.20;99.90
19385;DHT22;9828;54.122;17.974;2023-06-14T21:09:50;18.20;99.90
19385;DHT22;9828;54.122;17.974;2023-06-14T21:15:11;18.30;1.00
19385;DHT22;9828;54.122;17.974;2023-06-14T21:20:33;18.20;43.70
19385;DHT22;9828;54.122;17.974;2023-06-14T21:25:54;18.10;99.90
19385;DHT22;9828;54.122;17.974;2023-06-14T21:31:18;18.00;1.00
19385;DHT22;9828;54.122;17.974;2023-06-14T21:36:40;17.90;1.00
19385;DHT22;9828;54.122;17.974;2023-06-14T21:42:01;17.70;1.00
19385;DHT22;9828;54.122;17.974;2023-06-14T21:47:22;17.70;1.00
19385;DHT22;9828;54.122;17.974;2023-06-14T21:52:44;17.60;99.90
19385;DHT22;9828;54.122;17.974;2023-06-14T21:58:05;17.60;1.00
19385;DHT22;9828;54.122;17.974;2023-06-14T22:03:26;17.70;1.00
19385;DHT22;9828;54.122;17.974;2023-06-14T22:08:48;17.70;99.90
19385;DHT22;9828;54.122;17.974;2023-06-14T22:14:11;17.70;1.00
19385;DHT22;9828;54.122;17.974;2023-06-14T22:19:32;17.70;1.00
19385;DHT22;9828;54.122;17.974;2023-06-14T22:24:54;17.80;1.00
19385;DHT22;9828;54.122;17.974;2023-06-14T22:30:16;17.90;1.00
19385;DHT22;9828;54.122;17.974;2023-06-14T22:35:37;17.80;1.00
19385;DHT22;9828;54.122;17.974;2023-06-14T22:40:59;17.70;1.00
19385;DHT22;9828;54.122;17.974;2023-06-14T22:46:20;17.60;19.60
19385;DHT22;9828;54.122;17.974;2023-06-14T22:51:43;17.50;50.20
19385;DHT22;9828;54.122;17.974;2023-06-14T22:57:05;17.50;1.00
19385;DHT22;9828;54.122;17.974;2023-06-14T23:02:29;17.50;1.00
19385;DHT22;9828;54.122;17.974;2023-06-14T23:07:51;17.60;99.90
19385;DHT22;9828;54.122;17.974;2023-06-14T23:13:13;17.60;1.00
19385;DHT22;9828;54.122;17.974;2023-06-14T23:18:35;17.60;99.90
19385;DHT22;9828;54.122;17.974;2023-06-14T23:23:57;17.50;99.90
19385;DHT22;9828;54.122;17.974;2023-06-14T23:29:18;17.50;99.90
19385;DHT22;9828;54.122;17.974;2023-06-14T23:34:40;17.50;99.90
19385;DHT22;9828;54.122;17.974;2023-06-14T23:40:02;17.50;99.90
19385;DHT22;9828;54.122;17.974;2023-06-14T23:45:24;17.50;99.90
19385;DHT22;9828;54.122;17.974;2023-06-14T23:50:46;17.50;99.90
19385;DHT22;9828;54.122;17.974;2023-06-14T23:56:08;17.40;99.90
